Terminal Aerodrome Forecast
Issued by NWS Buffalo, NY

Home | Current Version | Previous Version | Text Only | Print | Product List | Glossary On
Versions: 1 2 3 4 5 6 7 8 9 10 11 12 13 14 15 16 17 18 19 20 21 22 23 24 25 26 27
000
FTUS41 KBUF 062037 AAA
TAFBUF
TAF AMD
KBUF 062037Z 0621/0718 04016G22KT P6SM BKN200
     FM070000 06008KT P6SM VCSH OVC080
     FM070500 01004KT P6SM BKN050
     FM071600 20006KT P6SM SCT250=

USA.gov is the U.S. government's official web portal to all federal, state and local government web resources and services.